Time,TemperatureF,DewpointF,PressureIn,WindDirection,WindDirectionDegrees,WindSpeedMPH,WindSpeedGustMPH,Humidity,HourlyPrecipIn,Conditions,Clouds,dailyrainin,SoftwareType,DateUTC
2013-08-29 00:11:00,71.5,69.0,30.06,South,172,1.0,3.0,93,0.00,,,0.00,weatherlink.com 1.10,2013-08-29 05:11:00,
2013-08-29 00:26:00,71.7,70.0,30.06,South,172,1.0,3.0,94,0.00,,,0.00,weatherlink.com 1.10,2013-08-29 05:26:00,
2013-08-29 00:41:00,71.4,70.0,30.06,South,172,0.0,0.0,94,0.00,,,0.00,weatherlink.com 1.10,2013-08-29 05:41:00,
2013-08-29 00:56:00,71.4,70.0,30.06,South,172,1.0,2.0,94,0.00,,,0.00,weatherlink.com 1.10,2013-08-29 05:56:00,
2013-08-29 01:11:00,71.6,70.0,30.06,ESE,117,0.0,4.0,93,0.00,,,0.00,weatherlink.com 1.10,2013-08-29 06:11:00,
2013-08-29 01:26:00,71.2,69.0,30.06,ESE,117,2.0,3.0,94,0.00,,,0.00,weatherlink.com 1.10,2013-08-29 06:26:00,
2013-08-29 01:41:00,70.4,69.0,30.05,ESE,117,1.0,3.0,94,0.00,,,0.00,weatherlink.com 1.10,2013-08-29 06:41:00,
2013-08-29 01:56:00,70.4,69.0,30.05,ESE,117,0.0,0.0,95,0.00,,,0.00,weatherlink.com 1.10,2013-08-29 06:56:00,
2013-08-29 02:11:00,70.8,69.0,30.05,ESE,117,0.0,0.0,95,0.00,,,0.00,weatherlink.com 1.10,2013-08-29 07:11:00,
2013-08-29 02:26:00,71.3,69.0,30.05,ESE,117,1.0,3.0,93,0.00,,,0.00,weatherlink.com 1.10,2013-08-29 07:26:00,
2013-08-29 02:41:00,71.2,69.0,30.05,SE,130,4.0,4.0,92,0.00,,,0.00,weatherlink.com 1.10,2013-08-29 07:41:00,
2013-08-29 02:56:00,71.2,69.0,30.05,SE,138,1.0,3.0,92,0.00,,,0.00,weatherlink.com 1.10,2013-08-29 07:56:00,
2013-08-29 03:11:00,70.9,68.0,30.05,SE,138,0.0,0.0,91,0.00,,,0.00,weatherlink.com 1.10,2013-08-29 08:11:00,
2013-08-29 03:26:00,70.7,68.0,30.05,SE,138,0.0,1.0,92,0.00,,,0.00,weatherlink.com 1.10,2013-08-29 08:26:00,
2013-08-29 03:41:00,70.2,68.0,30.05,SE,138,0.0,0.0,92,0.00,,,0.00,weatherlink.com 1.10,2013-08-29 08:41:00,
2013-08-29 03:56:00,70.2,68.0,30.05,SE,138,0.0,3.0,93,0.00,,,0.00,weatherlink.com 1.10,2013-08-29 08:56:00,
2013-08-29 04:11:00,70.3,68.0,30.05,SE,138,0.0,0.0,92,0.00,,,0.00,weatherlink.com 1.10,2013-08-29 09:11:00,
2013-08-29 04:26:00,70.0,68.0,30.05,SE,138,0.0,3.0,93,0.00,,,0.00,weatherlink.com 1.10,2013-08-29 09:26:00,
2013-08-29 04:41:00,70.0,68.0,30.05,SE,138,0.0,2.0,93,0.00,,,0.00,weatherlink.com 1.10,2013-08-29 09:41:00,
2013-08-29 04:56:00,70.0,68.0,30.05,SE,138,0.0,0.0,93,0.00,,,0.00,weatherlink.com 1.10,2013-08-29 09:56:00,
2013-08-29 05:11:00,70.0,68.0,30.05,SE,138,0.0,0.0,93,0.00,,,0.00,weatherlink.com 1.10,2013-08-29 10:11:00,
2013-08-29 05:26:00,70.2,68.0,30.05,SE,138,0.0,0.0,92,0.00,,,0.00,weatherlink.com 1.10,2013-08-29 10:26:00,
2013-08-29 05:41:00,70.7,68.0,30.05,SE,138,2.0,2.0,92,0.00,,,0.00,weatherlink.com 1.10,2013-08-29 10:41:00,
2013-08-29 05:56:00,71.1,68.0,30.05,SE,138,0.0,3.0,90,0.00,,,0.00,weatherlink.com 1.10,2013-08-29 10:56:00,
2013-08-29 06:11:00,70.4,67.0,30.06,SE,138,0.0,1.0,90,0.00,,,0.00,weatherlink.com 1.10,2013-08-29 11:11:00,
2013-08-29 06:26:00,69.3,67.0,30.06,SE,138,0.0,3.0,93,0.00,,,0.00,weatherlink.com 1.10,2013-08-29 11:26:00,
2013-08-29 06:41:00,69.1,67.0,30.07,SE,138,2.0,3.0,93,0.00,,,0.00,weatherlink.com 1.10,2013-08-29 11:41:00,
2013-08-29 06:56:00,68.7,67.0,30.07,SE,138,3.0,3.0,94,0.00,,,0.00,weatherlink.com 1.10,2013-08-29 11:56:00,
2013-08-29 07:11:00,69.6,68.0,30.07,SE,138,0.0,2.0,94,0.00,,,0.00,weatherlink.com 1.10,2013-08-29 12:11:00,
2013-08-29 07:26:00,70.2,68.0,30.07,SE,138,0.0,2.0,92,0.00,,,0.00,weatherlink.com 1.10,2013-08-29 12:26:00,
2013-08-29 07:41:00,70.8,68.0,30.07,SE,138,0.0,2.0,91,0.00,,,0.00,weatherlink.com 1.10,2013-08-29 12:41:00,
2013-08-29 07:56:00,72.5,70.0,30.07,SE,138,0.0,2.0,90,0.00,,,0.00,weatherlink.com 1.10,2013-08-29 12:56:00,
2013-08-29 08:11:00,74.6,71.0,30.07,SE,138,2.0,3.0,88,0.00,,,0.00,weatherlink.com 1.10,2013-08-29 13:11:00,
2013-08-29 08:26:00,76.3,72.0,30.08,SE,138,0.0,2.0,87,0.00,,,0.00,weatherlink.com 1.10,2013-08-29 13:26:00,
2013-08-29 08:42:00,77.8,72.0,30.08,SE,145,3.0,3.0,83,0.00,,,0.00,weatherlink.com 1.10,2013-08-29 13:42:00,
2013-08-29 08:57:00,79.0,73.0,30.08,SE,145,0.0,4.0,81,0.00,,,0.00,weatherlink.com 1.10,2013-08-29 13:57:00,
2013-08-29 09:12:00,81.2,73.0,30.07,SSE,151,3.0,3.0,77,0.00,,,0.00,weatherlink.com 1.10,2013-08-29 14:12:00,
2013-08-29 09:27:00,82.5,73.0,30.08,South,182,1.0,4.0,73,0.00,,,0.00,weatherlink.com 1.10,2013-08-29 14:27:00,
2013-08-29 09:42:00,83.9,73.0,30.08,South,179,3.0,5.0,70,0.00,,,0.00,weatherlink.com 1.10,2013-08-29 14:42:00,
2013-08-29 09:57:00,84.8,72.0,30.08,SW,227,2.0,6.0,66,0.00,,,0.00,weatherlink.com 1.10,2013-08-29 14:57:00,
2013-08-29 10:12:00,85.0,72.0,30.08,South,188,3.0,9.0,66,0.00,,,0.00,weatherlink.com 1.10,2013-08-29 15:12:00,
2013-08-29 10:27:00,86.1,72.0,30.07,WSW,237,6.0,9.0,63,0.00,,,0.00,weatherlink.com 1.10,2013-08-29 15:27:00,
2013-08-29 10:42:00,86.2,72.0,30.08,WSW,242,1.0,7.0,63,0.00,,,0.00,weatherlink.com 1.10,2013-08-29 15:42:00,
2013-08-29 10:57:00,87.8,71.0,30.08,SW,223,2.0,11.0,58,0.00,,,0.00,weatherlink.com 1.10,2013-08-29 15:57:00,
2013-08-29 11:12:00,88.2,72.0,30.08,SW,234,5.0,7.0,58,0.00,,,0.00,weatherlink.com 1.10,2013-08-29 16:12:00,
2013-08-29 11:27:00,88.6,72.0,30.07,West,273,7.0,9.0,58,0.00,,,0.00,weatherlink.com 1.10,2013-08-29 16:27:00,
2013-08-29 11:42:00,88.8,72.0,30.07,East,80,2.0,4.0,57,0.00,,,0.00,weatherlink.com 1.10,2013-08-29 16:42:00,
2013-08-29 11:57:00,88.9,71.0,30.07,NW,309,2.0,9.0,56,0.00,,,0.00,weatherlink.com 1.10,2013-08-29 16:57:00,
2013-08-29 12:12:00,89.3,72.0,30.07,SW,227,2.0,6.0,56,0.00,,,0.00,weatherlink.com 1.10,2013-08-29 17:12:00,
2013-08-29 12:27:00,88.8,72.0,30.07,West,276,0.0,5.0,57,0.00,,,0.00,weatherlink.com 1.10,2013-08-29 17:27:00,
2013-08-29 12:42:00,89.9,72.0,30.07,WSW,238,4.0,9.0,56,0.00,,,0.00,weatherlink.com 1.10,2013-08-29 17:42:00,
2013-08-29 12:57:00,89.3,71.0,30.06,SSW,201,0.0,6.0,55,0.00,,,0.00,weatherlink.com 1.10,2013-08-29 17:57:00,
2013-08-29 13:12:00,90.4,73.0,30.06,West,261,8.0,8.0,56,0.00,,,0.00,weatherlink.com 1.10,2013-08-29 18:12:00,
2013-08-29 13:27:00,90.3,72.0,30.05,SSW,193,0.0,7.0,55,0.00,,,0.00,weatherlink.com 1.10,2013-08-29 18:27:00,
2013-08-29 13:42:00,91.3,72.0,30.05,South,170,3.0,7.0,54,0.00,,,0.00,weatherlink.com 1.10,2013-08-29 18:42:00,
2013-08-29 13:57:00,92.4,73.0,30.05,WSW,243,5.0,8.0,54,0.00,,,0.00,weatherlink.com 1.10,2013-08-29 18:57:00,
2013-08-29 14:12:00,92.6,73.0,30.04,West,260,2.0,7.0,53,0.00,,,0.00,weatherlink.com 1.10,2013-08-29 19:12:00,
2013-08-29 14:27:00,92.0,74.0,30.04,West,267,2.0,6.0,55,0.00,,,0.00,weatherlink.com 1.10,2013-08-29 19:27:00,
2013-08-29 14:42:00,90.2,72.0,30.03,WNW,283,1.0,6.0,56,0.00,,,0.00,weatherlink.com 1.10,2013-08-29 19:42:00,
2013-08-29 14:57:00,92.9,74.0,30.03,West,267,3.0,7.0,54,0.00,,,0.00,weatherlink.com 1.10,2013-08-29 19:57:00,
2013-08-29 15:12:00,92.9,74.0,30.02,South,177,4.0,8.0,54,0.00,,,0.00,weatherlink.com 1.10,2013-08-29 20:12:00,
2013-08-29 15:28:00,94.1,73.0,30.02,WSW,251,1.0,6.0,51,0.00,,,0.00,weatherlink.com 1.10,2013-08-29 20:28:00,
2013-08-29 15:43:00,94.4,74.0,30.01,NW,304,4.0,8.0,51,0.00,,,0.00,weatherlink.com 1.10,2013-08-29 20:43:00,
2013-08-29 15:58:00,93.3,73.0,30.01,SW,225,2.0,7.0,52,0.00,,,0.00,weatherlink.com 1.10,2013-08-29 20:58:00,
2013-08-29 16:13:00,92.2,73.0,30.00,West,262,6.0,9.0,53,0.00,,,0.00,weatherlink.com 1.10,2013-08-29 21:13:00,
2013-08-29 16:28:00,93.5,74.0,30.00,WSW,248,5.0,9.0,53,0.00,,,0.00,weatherlink.com 1.10,2013-08-29 21:28:00,
2013-08-29 16:43:00,93.1,72.0,30.00,West,273,1.0,9.0,51,0.00,,,0.00,weatherlink.com 1.10,2013-08-29 21:43:00,
2013-08-29 16:58:00,93.9,73.0,30.00,WSW,249,5.0,7.0,51,0.00,,,0.00,weatherlink.com 1.10,2013-08-29 21:58:00,
2013-08-29 17:13:00,93.5,73.0,30.00,WNW,286,3.0,6.0,51,0.00,,,0.00,weatherlink.com 1.10,2013-08-29 22:13:00,
2013-08-29 17:28:00,93.3,74.0,30.00,West,262,4.0,7.0,53,0.00,,,0.00,weatherlink.com 1.10,2013-08-29 22:28:00,
2013-08-29 17:43:00,92.3,72.0,29.99,WNW,292,0.0,6.0,52,0.00,,,0.00,weatherlink.com 1.10,2013-08-29 22:43:00,
2013-08-29 17:58:00,93.4,73.0,29.99,West,272,2.0,7.0,52,0.00,,,0.00,weatherlink.com 1.10,2013-08-29 22:58:00,
2013-08-29 18:13:00,92.0,73.0,29.99,SW,229,2.0,4.0,54,0.00,,,0.00,weatherlink.com 1.10,2013-08-29 23:13:00,
2013-08-29 18:28:00,91.6,74.0,29.99,WNW,292,2.0,5.0,56,0.00,,,0.00,weatherlink.com 1.10,2013-08-29 23:28:00,
2013-08-29 18:43:00,91.0,73.0,29.99,WNW,292,0.0,2.0,55,0.00,,,0.00,weatherlink.com 1.10,2013-08-29 23:43:00,
2013-08-29 18:58:00,91.6,74.0,29.99,WNW,291,1.0,3.0,56,0.00,,,0.00,weatherlink.com 1.10,2013-08-29 23:58:00,
2013-08-29 19:13:00,90.5,74.0,30.00,WNW,291,0.0,3.0,59,0.00,,,0.00,weatherlink.com 1.10,2013-08-30 00:13:00,
2013-08-29 19:28:00,87.5,75.0,29.99,WSW,240,0.0,2.0,67,0.00,,,0.00,weatherlink.com 1.10,2013-08-30 00:28:00,
2013-08-29 19:43:00,85.8,75.0,30.00,South,174,0.0,3.0,71,0.00,,,0.00,weatherlink.com 1.10,2013-08-30 00:43:00,
2013-08-29 19:58:00,84.6,76.0,30.00,South,174,0.0,0.0,75,0.00,,,0.00,weatherlink.com 1.10,2013-08-30 00:58:00,
2013-08-29 20:13:00,83.4,76.0,30.00,South,174,0.0,0.0,77,0.00,,,0.00,weatherlink.com 1.10,2013-08-30 01:13:00,
2013-08-29 20:28:00,82.4,75.0,30.00,South,174,0.0,0.0,79,0.00,,,0.00,weatherlink.com 1.10,2013-08-30 01:28:00,
2013-08-29 20:43:00,81.6,75.0,30.00,South,174,0.0,0.0,80,0.00,,,0.00,weatherlink.com 1.10,2013-08-30 01:43:00,
2013-08-29 20:58:00,80.9,74.0,30.00,South,174,0.0,0.0,79,0.00,,,0.00,weatherlink.com 1.10,2013-08-30 01:58:00,
2013-08-29 21:13:00,79.9,75.0,30.01,South,174,0.0,0.0,84,0.00,,,0.00,weatherlink.com 1.10,2013-08-30 02:13:00,
2013-08-29 21:28:00,77.9,74.0,30.01,South,175,2.0,3.0,87,0.00,,,0.00,weatherlink.com 1.10,2013-08-30 02:28:00,
2013-08-29 21:43:00,78.3,74.0,30.01,SE,139,0.0,4.0,86,0.00,,,0.00,weatherlink.com 1.10,2013-08-30 02:43:00,
2013-08-29 21:58:00,77.5,73.0,30.00,SE,139,0.0,0.0,87,0.00,,,0.00,weatherlink.com 1.10,2013-08-30 02:58:00,
2013-08-29 22:13:00,77.0,73.0,30.00,SE,138,0.0,1.0,88,0.00,,,0.00,weatherlink.com 1.10,2013-08-30 03:13:00,
2013-08-29 22:28:00,77.1,73.0,30.00,SE,140,2.0,4.0,88,0.00,,,0.00,weatherlink.com 1.10,2013-08-30 03:28:00,
2013-08-29 22:43:00,77.5,73.0,30.00,SE,140,1.0,4.0,87,0.00,,,0.00,weatherlink.com 1.10,2013-08-30 03:43:00,
2013-08-29 22:58:00,77.2,74.0,30.00,SE,140,0.0,3.0,88,0.00,,,0.00,weatherlink.com 1.10,2013-08-30 03:58:00,
2013-08-29 23:13:00,77.1,73.0,29.99,South,175,3.0,5.0,87,0.00,,,0.00,weatherlink.com 1.10,2013-08-30 04:13:00,
2013-08-29 23:28:00,76.8,73.0,29.99,South,184,0.0,3.0,88,0.00,,,0.00,weatherlink.com 1.10,2013-08-30 04:28:00,
2013-08-29 23:43:00,77.1,73.0,29.99,South,184,0.0,0.0,87,0.00,,,0.00,weatherlink.com 1.10,2013-08-30 04:43:00,
2013-08-29 23:58:00,77.4,73.0,29.99,South,184,0.0,1.0,86,0.00,,,0.00,weatherlink.com 1.10,2013-08-30 04:58:00,